Accueil
METAR-TAF:

METAR-TAF

Aéroports :

Aéroport de Venise-Marco-Polo

Venise, Italie

latitude: 45-30N, longitude: 012-20E, altitude: 2 m

Observation

Le bulletin a été fait il y a 39 minutes, à 00:50 UTC
Vent 10 kt de nord/nord-est
Température 18°C
Humidité 64%
Pression 1015 hPa
Visibilité 10 km ou plus
pas de nuages en-dessous de 1500 mètres et pas de cumulonimbus.

METAR: LIPZ 210050Z 02010KT CAVOK 18/11 Q1015 NOSIG

Heure: 03:29 (01:29 UTC)

Prévision

Le bulletin a été fait il y a 2 heures et 29 minutes, à 23:00 UTC
Prévision valable du 21 à 00 UTC au 22 à 06 UTC
Vent 12 kt de nord/nord-est
Visibilité 10 km ou plus
Nuages épars à une hauteur de 4000 ft
Evoluant progressivement
du 21 à 09 UTC au 21 à 11 UTC
Vent 8 kt de sud-est
Evoluant progressivement
du 21 à 16 UTC au 21 à 18 UTC
Vent 10 kt de nord/nord-est

TAF: LIPZ 202300Z 2100/2206 03012KT 9999 SCT040 BECMG 2109/2111 13008KT BECMG 2116/2118 03010KT

Observations et prévisions météorologiques de plus de 4000 aéroports (messages METAR et TAF).

Les stations disponibles sont représentées par des disques jaunes et rouges sur la carte.

Passer la souris dessus pour voir le nom de la station.

Cliquer dessus pour voir les observations et prévisions météorologiques.

Pour changer de carte: cliquez sur les boutons verts avec une croix noire pour zoomer, sur le bouton vert avec un tiret pour effectuer un zoom arrière, ou sur les flèches vertes pour les cartes adjacentes.


METAR-TAF: